sensor_id;sensor_type;location;lat;lon;timestamp;temperature;humidity
78876;DHT22;68253;52.506;5.486;2023-04-25T00:02:01;7.20;68.60
78876;DHT22;68253;52.506;5.486;2023-04-25T00:04:27;7.10;68.60
78876;DHT22;68253;52.506;5.486;2023-04-25T00:06:54;7.10;68.50
78876;DHT22;68253;52.506;5.486;2023-04-25T00:09:20;7.10;68.20
78876;DHT22;68253;52.506;5.486;2023-04-25T00:11:46;7.00;67.90
78876;DHT22;68253;52.506;5.486;2023-04-25T00:14:12;7.00;67.40
78876;DHT22;68253;52.506;5.486;2023-04-25T00:16:38;7.00;67.60
78876;DHT22;68253;52.506;5.486;2023-04-25T00:19:04;7.00;67.60
78876;DHT22;68253;52.506;5.486;2023-04-25T00:21:31;7.00;67.60
78876;DHT22;68253;52.506;5.486;2023-04-25T00:23:57;7.00;67.70
78876;DHT22;68253;52.506;5.486;2023-04-25T00:26:23;7.00;67.50
78876;DHT22;68253;52.506;5.486;2023-04-25T00:28:49;7.00;67.50
78876;DHT22;68253;52.506;5.486;2023-04-25T00:31:15;6.90;67.50
78876;DHT22;68253;52.506;5.486;2023-04-25T00:33:42;7.00;67.20
78876;DHT22;68253;52.506;5.486;2023-04-25T00:36:08;7.00;66.90
78876;DHT22;68253;52.506;5.486;2023-04-25T00:38:35;7.00;66.10
78876;DHT22;68253;52.506;5.486;2023-04-25T00:41:01;7.00;66.00
78876;DHT22;68253;52.506;5.486;2023-04-25T00:43:28;7.00;66.20
78876;DHT22;68253;52.506;5.486;2023-04-25T00:45:56;7.00;66.10
78876;DHT22;68253;52.506;5.486;2023-04-25T00:48:24;7.00;66.20
78876;DHT22;68253;52.506;5.486;2023-04-25T00:50:53;7.10;66.10
78876;DHT22;68253;52.506;5.486;2023-04-25T00:53:23;7.10;66.10
78876;DHT22;68253;52.506;5.486;2023-04-25T00:55:50;7.20;66.20
78876;DHT22;68253;52.506;5.486;2023-04-25T00:58:20;7.20;66.50
78876;DHT22;68253;52.506;5.486;2023-04-25T01:00:47;7.20;66.40
78876;DHT22;68253;52.506;5.486;2023-04-25T01:03:17;7.10;66.50
78876;DHT22;68253;52.506;5.486;2023-04-25T01:05:46;7.20;66.40
78876;DHT22;68253;52.506;5.486;2023-04-25T01:08:13;7.10;66.20
78876;DHT22;68253;52.506;5.486;2023-04-25T01:10:40;7.10;66.20
78876;DHT22;68253;52.506;5.486;2023-04-25T01:13:06;7.00;65.90
78876;DHT22;68253;52.506;5.486;2023-04-25T01:15:33;7.00;66.10
78876;DHT22;68253;52.506;5.486;2023-04-25T01:17:59;7.00;66.20
78876;DHT22;68253;52.506;5.486;2023-04-25T01:20:26;7.00;66.40
78876;DHT22;68253;52.506;5.486;2023-04-25T01:22:55;7.00;66.20
78876;DHT22;68253;52.506;5.486;2023-04-25T01:25:22;7.00;66.00
78876;DHT22;68253;52.506;5.486;2023-04-25T01:27:48;7.00;65.90
78876;DHT22;68253;52.506;5.486;2023-04-25T01:30:15;7.00;65.70
78876;DHT22;68253;52.506;5.486;2023-04-25T01:32:42;7.00;65.90
78876;DHT22;68253;52.506;5.486;2023-04-25T01:35:10;7.00;65.90
78876;DHT22;68253;52.506;5.486;2023-04-25T01:37:43;7.00;65.80
78876;DHT22;68253;52.506;5.486;2023-04-25T01:40:12;7.00;66.00
78876;DHT22;68253;52.506;5.486;2023-04-25T01:42:41;7.00;66.10
78876;DHT22;68253;52.506;5.486;2023-04-25T01:45:08;7.00;66.20
78876;DHT22;68253;52.506;5.486;2023-04-25T01:47:35;7.00;66.10
78876;DHT22;68253;52.506;5.486;2023-04-25T01:50:02;6.90;66.20
78876;DHT22;68253;52.506;5.486;2023-04-25T01:52:30;6.90;66.30
78876;DHT22;68253;52.506;5.486;2023-04-25T01:54:57;6.90;66.40
78876;DHT22;68253;52.506;5.486;2023-04-25T01:57:24;6.80;66.60
78876;DHT22;68253;52.506;5.486;2023-04-25T01:59:50;6.80;66.60
78876;DHT22;68253;52.506;5.486;2023-04-25T02:02:37;6.80;66.60
78876;DHT22;68253;52.506;5.486;2023-04-25T02:05:04;6.70;66.60
78876;DHT22;68253;52.506;5.486;2023-04-25T02:07:33;6.70;66.70
78876;DHT22;68253;52.506;5.486;2023-04-25T02:09:59;6.80;66.80
78876;DHT22;68253;52.506;5.486;2023-04-25T02:12:28;6.80;66.90
78876;DHT22;68253;52.506;5.486;2023-04-25T02:14:54;6.80;66.90
78876;DHT22;68253;52.506;5.486;2023-04-25T02:17:27;6.70;66.90
78876;DHT22;68253;52.506;5.486;2023-04-25T02:19:53;6.70;66.90
78876;DHT22;68253;52.506;5.486;2023-04-25T02:22:19;6.70;66.80
78876;DHT22;68253;52.506;5.486;2023-04-25T02:24:46;6.70;66.60
78876;DHT22;68253;52.506;5.486;2023-04-25T02:27:12;6.70;66.80
78876;DHT22;68253;52.506;5.486;2023-04-25T02:29:38;6.70;66.80
78876;DHT22;68253;52.506;5.486;2023-04-25T02:32:04;6.70;67.00
78876;DHT22;68253;52.506;5.486;2023-04-25T02:34:31;6.70;67.00
78876;DHT22;68253;52.506;5.486;2023-04-25T02:37:00;6.60;67.10
78876;DHT22;68253;52.506;5.486;2023-04-25T02:39:26;6.60;67.20
78876;DHT22;68253;52.506;5.486;2023-04-25T02:41:53;6.70;67.40
78876;DHT22;68253;52.506;5.486;2023-04-25T02:44:21;6.70;67.50
78876;DHT22;68253;52.506;5.486;2023-04-25T02:46:47;6.70;67.50
78876;DHT22;68253;52.506;5.486;2023-04-25T02:49:13;6.70;67.50
78876;DHT22;68253;52.506;5.486;2023-04-25T02:51:39;6.80;67.50
78876;DHT22;68253;52.506;5.486;2023-04-25T02:54:05;6.80;67.50
78876;DHT22;68253;52.506;5.486;2023-04-25T02:56:36;6.80;67.60
78876;DHT22;68253;52.506;5.486;2023-04-25T02:59:03;6.80;67.60
78876;DHT22;68253;52.506;5.486;2023-04-25T03:01:30;6.90;67.60
78876;DHT22;68253;52.506;5.486;2023-04-25T03:03:57;6.90;67.60
78876;DHT22;68253;52.506;5.486;2023-04-25T03:06:23;6.90;67.50
78876;DHT22;68253;52.506;5.486;2023-04-25T03:08:49;6.90;67.60
78876;DHT22;68253;52.506;5.486;2023-04-25T03:11:16;7.00;67.50
78876;DHT22;68253;52.506;5.486;2023-04-25T03:13:42;7.00;67.50
78876;DHT22;68253;52.506;5.486;2023-04-25T03:16:10;7.00;67.40
78876;DHT22;68253;52.506;5.486;2023-04-25T03:18:36;7.00;67.50
78876;DHT22;68253;52.506;5.486;2023-04-25T03:21:03;7.00;67.30
78876;DHT22;68253;52.506;5.486;2023-04-25T03:23:30;7.00;66.90
78876;DHT22;68253;52.506;5.486;2023-04-25T03:25:56;7.00;66.80
78876;DHT22;68253;52.506;5.486;2023-04-25T03:28:23;7.00;66.60
78876;DHT22;68253;52.506;5.486;2023-04-25T03:30:49;7.00;66.20
78876;DHT22;68253;52.506;5.486;2023-04-25T03:33:15;6.90;66.10
78876;DHT22;68253;52.506;5.486;2023-04-25T03:35:41;6.90;66.00
78876;DHT22;68253;52.506;5.486;2023-04-25T03:38:08;6.80;66.10
78876;DHT22;68253;52.506;5.486;2023-04-25T03:40:38;6.80;66.20
78876;DHT22;68253;52.506;5.486;2023-04-25T03:43:11;6.80;66.20
78876;DHT22;68253;52.506;5.486;2023-04-25T03:45:41;6.80;66.10
78876;DHT22;68253;52.506;5.486;2023-04-25T03:48:07;6.80;66.00
78876;DHT22;68253;52.506;5.486;2023-04-25T03:50:33;6.80;65.70
78876;DHT22;68253;52.506;5.486;2023-04-25T03:52:59;6.90;65.30
78876;DHT22;68253;52.506;5.486;2023-04-25T03:55:28;6.90;65.10
78876;DHT22;68253;52.506;5.486;2023-04-25T03:57:54;6.90;65.20
78876;DHT22;68253;52.506;5.486;2023-04-25T04:00:22;6.80;65.50
78876;DHT22;68253;52.506;5.486;2023-04-25T04:02:51;6.90;65.80
78876;DHT22;68253;52.506;5.486;2023-04-25T04:05:18;6.90;65.90
78876;DHT22;68253;52.506;5.486;2023-04-25T04:07:50;6.90;66.00
78876;DHT22;68253;52.506;5.486;2023-04-25T04:10:17;6.90;66.20
78876;DHT22;68253;52.506;5.486;2023-04-25T04:12:43;6.90;66.20
78876;DHT22;68253;52.506;5.486;2023-04-25T04:15:11;6.90;66.50
78876;DHT22;68253;52.506;5.486;2023-04-25T04:17:38;6.90;66.40
78876;DHT22;68253;52.506;5.486;2023-04-25T04:20:04;6.90;66.10
78876;DHT22;68253;52.506;5.486;2023-04-25T04:22:32;6.90;66.20
78876;DHT22;68253;52.506;5.486;2023-04-25T04:25:02;6.80;66.30
78876;DHT22;68253;52.506;5.486;2023-04-25T04:27:52;6.80;66.40
78876;DHT22;68253;52.506;5.486;2023-04-25T04:30:42;6.80;66.40
78876;DHT22;68253;52.506;5.486;2023-04-25T04:33:08;6.80;66.50
78876;DHT22;68253;52.506;5.486;2023-04-25T04:35:35;6.80;66.30
78876;DHT22;68253;52.506;5.486;2023-04-25T04:38:01;6.70;66.40
78876;DHT22;68253;52.506;5.486;2023-04-25T04:40:32;6.80;66.20
78876;DHT22;68253;52.506;5.486;2023-04-25T04:43:21;6.80;66.20
78876;DHT22;68253;52.506;5.486;2023-04-25T04:46:01;6.80;66.30
78876;DHT22;68253;52.506;5.486;2023-04-25T04:48:33;6.80;66.40
78876;DHT22;68253;52.506;5.486;2023-04-25T04:51:22;6.80;66.30
78876;DHT22;68253;52.506;5.486;2023-04-25T04:54:07;6.80;66.10
78876;DHT22;68253;52.506;5.486;2023-04-25T04:56:46;6.80;66.20
78876;DHT22;68253;52.506;5.486;2023-04-25T04:59:25;6.80;66.40
78876;DHT22;68253;52.506;5.486;2023-04-25T05:02:20;6.90;66.30
78876;DHT22;68253;52.506;5.486;2023-04-25T05:04:49;6.90;66.10
78876;DHT22;68253;52.506;5.486;2023-04-25T05:07:49;6.90;66.20
78876;DHT22;68253;52.506;5.486;2023-04-25T05:10:34;6.90;66.20
78876;DHT22;68253;52.506;5.486;2023-04-25T05:13:17;6.90;66.20
78876;DHT22;68253;52.506;5.486;2023-04-25T05:16:03;6.90;65.80
78876;DHT22;68253;52.506;5.486;2023-04-25T05:19:08;7.00;65.70
78876;DHT22;68253;52.506;5.486;2023-04-25T05:21:50;7.00;65.70
78876;DHT22;68253;52.506;5.486;2023-04-25T05:24:41;7.00;65.30
78876;DHT22;68253;52.506;5.486;2023-04-25T05:27:26;7.00;65.30
78876;DHT22;68253;52.506;5.486;2023-04-25T05:30:12;7.00;65.30
78876;DHT22;68253;52.506;5.486;2023-04-25T05:33:01;7.00;65.30
78876;DHT22;68253;52.506;5.486;2023-04-25T05:35:28;6.90;65.40
78876;DHT22;68253;52.506;5.486;2023-04-25T05:37:54;6.90;65.40
78876;DHT22;68253;52.506;5.486;2023-04-25T05:40:31;6.90;65.50
78876;DHT22;68253;52.506;5.486;2023-04-25T05:43:11;7.00;65.70
78876;DHT22;68253;52.506;5.486;2023-04-25T05:45:53;7.00;65.90
78876;DHT22;68253;52.506;5.486;2023-04-25T05:48:45;7.00;65.80
78876;DHT22;68253;52.506;5.486;2023-04-25T05:51:35;7.10;65.50
78876;DHT22;68253;52.506;5.486;2023-04-25T05:54:21;7.20;65.40
78876;DHT22;68253;52.506;5.486;2023-04-25T05:56:48;7.20;65.10
78876;DHT22;68253;52.506;5.486;2023-04-25T05:59:14;7.20;64.70
78876;DHT22;68253;52.506;5.486;2023-04-25T06:01:40;7.20;64.70
78876;DHT22;68253;52.506;5.486;2023-04-25T06:04:06;7.20;64.70
78876;DHT22;68253;52.506;5.486;2023-04-25T06:06:33;7.40;64.60
78876;DHT22;68253;52.506;5.486;2023-04-25T06:08:59;7.40;64.50
78876;DHT22;68253;52.506;5.486;2023-04-25T06:11:25;7.50;64.60
78876;DHT22;68253;52.506;5.486;2023-04-25T06:13:51;7.50;64.70
78876;DHT22;68253;52.506;5.486;2023-04-25T06:16:17;7.60;64.40
78876;DHT22;68253;52.506;5.486;2023-04-25T06:18:44;7.70;64.40
78876;DHT22;68253;52.506;5.486;2023-04-25T06:21:10;7.80;64.40
78876;DHT22;68253;52.506;5.486;2023-04-25T06:23:37;7.80;64.20
78876;DHT22;68253;52.506;5.486;2023-04-25T06:26:06;7.90;63.90
78876;DHT22;68253;52.506;5.486;2023-04-25T06:28:34;8.00;63.80
78876;DHT22;68253;52.506;5.486;2023-04-25T06:31:00;8.00;63.40
78876;DHT22;68253;52.506;5.486;2023-04-25T06:33:26;8.00;63.00
78876;DHT22;68253;52.506;5.486;2023-04-25T06:35:54;8.00;63.20
78876;DHT22;68253;52.506;5.486;2023-04-25T06:38:24;8.10;63.20
78876;DHT22;68253;52.506;5.486;2023-04-25T06:40:51;8.10;63.30
78876;DHT22;68253;52.506;5.486;2023-04-25T06:43:18;8.20;63.50
78876;DHT22;68253;52.506;5.486;2023-04-25T06:46:03;8.40;63.50
78876;DHT22;68253;52.506;5.486;2023-04-25T06:48:31;8.60;63.00
78876;DHT22;68253;52.506;5.486;2023-04-25T06:50:58;8.60;63.10
78876;DHT22;68253;52.506;5.486;2023-04-25T06:53:25;8.60;63.00
78876;DHT22;68253;52.506;5.486;2023-04-25T06:55:58;8.60;62.10
78876;DHT22;68253;52.506;5.486;2023-04-25T06:58:27;8.50;62.00
78876;DHT22;68253;52.506;5.486;2023-04-25T07:01:13;8.40;61.90
78876;DHT22;68253;52.506;5.486;2023-04-25T07:03:40;8.20;62.00
78876;DHT22;68253;52.506;5.486;2023-04-25T07:06:12;8.10;62.30
78876;DHT22;68253;52.506;5.486;2023-04-25T07:08:39;8.00;62.50
78876;DHT22;68253;52.506;5.486;2023-04-25T07:11:05;8.00;62.80
78876;DHT22;68253;52.506;5.486;2023-04-25T07:13:31;8.00;63.20
78876;DHT22;68253;52.506;5.486;2023-04-25T07:15:57;8.10;63.70
78876;DHT22;68253;52.506;5.486;2023-04-25T07:18:24;8.60;63.50
78876;DHT22;68253;52.506;5.486;2023-04-25T07:20:51;9.00;62.80
78876;DHT22;68253;52.506;5.486;2023-04-25T07:23:17;9.20;62.00
78876;DHT22;68253;52.506;5.486;2023-04-25T07:25:44;9.20;61.40
78876;DHT22;68253;52.506;5.486;2023-04-25T07:28:10;9.20;61.30
78876;DHT22;68253;52.506;5.486;2023-04-25T07:30:36;9.20;60.30
78876;DHT22;68253;52.506;5.486;2023-04-25T07:33:03;9.20;59.30
78876;DHT22;68253;52.506;5.486;2023-04-25T07:35:30;9.30;59.20
78876;DHT22;68253;52.506;5.486;2023-04-25T07:37:56;9.30;58.70
78876;DHT22;68253;52.506;5.486;2023-04-25T07:40:24;9.30;58.30
78876;DHT22;68253;52.506;5.486;2023-04-25T07:42:54;9.30;58.10
78876;DHT22;68253;52.506;5.486;2023-04-25T07:45:44;9.20;58.30
78876;DHT22;68253;52.506;5.486;2023-04-25T07:48:11;9.30;58.60
78876;DHT22;68253;52.506;5.486;2023-04-25T07:50:39;9.40;58.50
78876;DHT22;68253;52.506;5.486;2023-04-25T07:53:06;9.40;58.30
78876;DHT22;68253;52.506;5.486;2023-04-25T07:55:37;9.50;58.70
78876;DHT22;68253;52.506;5.486;2023-04-25T07:58:11;9.60;58.80
78876;DHT22;68253;52.506;5.486;2023-04-25T08:00:40;10.00;58.70
78876;DHT22;68253;52.506;5.486;2023-04-25T08:03:34;10.30;58.90
78876;DHT22;68253;52.506;5.486;2023-04-25T08:06:02;10.80;58.30
78876;DHT22;68253;52.506;5.486;2023-04-25T08:08:31;11.30;57.70
78876;DHT22;68253;52.506;5.486;2023-04-25T08:10:58;11.70;56.50
78876;DHT22;68253;52.506;5.486;2023-04-25T08:13:24;12.00;56.40
78876;DHT22;68253;52.506;5.486;2023-04-25T08:15:50;12.20;56.40
78876;DHT22;68253;52.506;5.486;2023-04-25T08:18:17;12.50;56.10
78876;DHT22;68253;52.506;5.486;2023-04-25T08:20:44;12.80;55.60
78876;DHT22;68253;52.506;5.486;2023-04-25T08:23:12;13.00;55.30
78876;DHT22;68253;52.506;5.486;2023-04-25T08:25:44;13.20;55.40
78876;DHT22;68253;52.506;5.486;2023-04-25T08:28:12;13.40;54.90
78876;DHT22;68253;52.506;5.486;2023-04-25T08:30:38;13.50;53.90
78876;DHT22;68253;52.506;5.486;2023-04-25T08:33:07;13.50;54.30
78876;DHT22;68253;52.506;5.486;2023-04-25T08:35:57;13.70;54.00
78876;DHT22;68253;52.506;5.486;2023-04-25T08:38:25;13.70;54.60
78876;DHT22;68253;52.506;5.486;2023-04-25T08:40:54;13.90;54.50
78876;DHT22;68253;52.506;5.486;2023-04-25T08:43:23;14.00;53.90
78876;DHT22;68253;52.506;5.486;2023-04-25T08:45:49;14.20;53.90
78876;DHT22;68253;52.506;5.486;2023-04-25T08:48:32;14.40;53.60
78876;DHT22;68253;52.506;5.486;2023-04-25T08:51:03;14.70;53.50
78876;DHT22;68253;52.506;5.486;2023-04-25T08:53:33;14.80;52.80
78876;DHT22;68253;52.506;5.486;2023-04-25T08:56:02;14.80;52.60
78876;DHT22;68253;52.506;5.486;2023-04-25T08:58:29;14.50;52.60
78876;DHT22;68253;52.506;5.486;2023-04-25T09:00:55;13.90;53.30
78876;DHT22;68253;52.506;5.486;2023-04-25T09:03:24;13.30;54.00
78876;DHT22;68253;52.506;5.486;2023-04-25T09:05:51;12.70;54.60
78876;DHT22;68253;52.506;5.486;2023-04-25T09:08:18;12.00;55.70
78876;DHT22;68253;52.506;5.486;2023-04-25T09:10:44;11.50;56.80
78876;DHT22;68253;52.506;5.486;2023-04-25T09:13:12;11.10;57.50
78876;DHT22;68253;52.506;5.486;2023-04-25T09:16:10;10.90;58.20
78876;DHT22;68253;52.506;5.486;2023-04-25T09:19:04;10.70;59.00
78876;DHT22;68253;52.506;5.486;2023-04-25T09:21:34;11.00;60.00
78876;DHT22;68253;52.506;5.486;2023-04-25T09:24:01;11.50;59.00
78876;DHT22;68253;52.506;5.486;2023-04-25T09:26:27;12.00;58.40
78876;DHT22;68253;52.506;5.486;2023-04-25T09:29:05;12.50;57.90
78876;DHT22;68253;52.506;5.486;2023-04-25T09:31:33;13.10;57.10
78876;DHT22;68253;52.506;5.486;2023-04-25T09:34:02;13.30;56.60
78876;DHT22;68253;52.506;5.486;2023-04-25T09:36:30;13.30;56.60
78876;DHT22;68253;52.506;5.486;2023-04-25T09:39:33;13.50;55.80
78876;DHT22;68253;52.506;5.486;2023-04-25T09:42:09;13.30;54.80
78876;DHT22;68253;52.506;5.486;2023-04-25T09:44:36;13.10;55.00
78876;DHT22;68253;52.506;5.486;2023-04-25T09:47:02;13.00;55.20
78876;DHT22;68253;52.506;5.486;2023-04-25T09:49:29;13.00;55.50
78876;DHT22;68253;52.506;5.486;2023-04-25T09:52:03;13.10;54.50
78876;DHT22;68253;52.506;5.486;2023-04-25T09:54:36;13.30;54.70
78876;DHT22;68253;52.506;5.486;2023-04-25T09:57:20;13.50;54.60
78876;DHT22;68253;52.506;5.486;2023-04-25T09:59:56;13.90;54.30
78876;DHT22;68253;52.506;5.486;2023-04-25T10:02:25;14.30;52.90
78876;DHT22;68253;52.506;5.486;2023-04-25T10:04:55;14.60;53.50
78876;DHT22;68253;52.506;5.486;2023-04-25T10:07:30;15.00;53.30
78876;DHT22;68253;52.506;5.486;2023-04-25T10:10:04;15.20;53.00
78876;DHT22;68253;52.506;5.486;2023-04-25T10:12:30;15.50;53.00
78876;DHT22;68253;52.506;5.486;2023-04-25T10:15:00;15.60;52.30
78876;DHT22;68253;52.506;5.486;2023-04-25T10:17:27;15.80;50.90
78876;DHT22;68253;52.506;5.486;2023-04-25T10:19:54;16.00;51.20
78876;DHT22;68253;52.506;5.486;2023-04-25T10:22:29;16.00;50.50
78876;DHT22;68253;52.506;5.486;2023-04-25T10:24:57;15.80;50.40
78876;DHT22;68253;52.506;5.486;2023-04-25T10:27:23;15.60;50.50
78876;DHT22;68253;52.506;5.486;2023-04-25T10:30:15;15.30;50.70
78876;DHT22;68253;52.506;5.486;2023-04-25T10:32:42;15.40;51.70
78876;DHT22;68253;52.506;5.486;2023-04-25T10:35:18;15.70;51.70
78876;DHT22;68253;52.506;5.486;2023-04-25T10:38:24;16.00;51.90
78876;DHT22;68253;52.506;5.486;2023-04-25T10:41:10;16.30;51.90
78876;DHT22;68253;52.506;5.486;2023-04-25T10:43:42;16.00;50.20
78876;DHT22;68253;52.506;5.486;2023-04-25T10:46:25;15.60;50.10
78876;DHT22;68253;52.506;5.486;2023-04-25T10:48:56;15.40;49.90
78876;DHT22;68253;52.506;5.486;2023-04-25T10:51:27;15.40;50.30
78876;DHT22;68253;52.506;5.486;2023-04-25T10:56:33;15.80;50.40
78876;DHT22;68253;52.506;5.486;2023-04-25T10:59:13;16.10;49.80
78876;DHT22;68253;52.506;5.486;2023-04-25T11:01:46;16.30;49.30
78876;DHT22;68253;52.506;5.486;2023-04-25T11:04:32;16.40;49.00
78876;DHT22;68253;52.506;5.486;2023-04-25T11:09:36;16.40;49.70
78876;DHT22;68253;52.506;5.486;2023-04-25T11:12:02;16.50;49.70
78876;DHT22;68253;52.506;5.486;2023-04-25T11:14:28;16.60;49.40
78876;DHT22;68253;52.506;5.486;2023-04-25T11:16:55;16.70;49.40
78876;DHT22;68253;52.506;5.486;2023-04-25T11:19:22;16.80;49.00
78876;DHT22;68253;52.506;5.486;2023-04-25T11:21:49;17.00;48.90
78876;DHT22;68253;52.506;5.486;2023-04-25T11:24:18;17.20;48.90
78876;DHT22;68253;52.506;5.486;2023-04-25T11:26:46;17.40;47.90
78876;DHT22;68253;52.506;5.486;2023-04-25T11:29:14;17.60;48.20
78876;DHT22;68253;52.506;5.486;2023-04-25T11:31:44;17.50;47.90
78876;DHT22;68253;52.506;5.486;2023-04-25T11:34:11;17.20;48.90
78876;DHT22;68253;52.506;5.486;2023-04-25T11:36:38;17.20;48.90
78876;DHT22;68253;52.506;5.486;2023-04-25T11:39:05;17.50;48.40
78876;DHT22;68253;52.506;5.486;2023-04-25T11:41:32;17.80;48.40
78876;DHT22;68253;52.506;5.486;2023-04-25T11:43:58;17.70;48.00
78876;DHT22;68253;52.506;5.486;2023-04-25T11:46:24;17.50;48.10
78876;DHT22;68253;52.506;5.486;2023-04-25T11:48:51;17.00;48.60
78876;DHT22;68253;52.506;5.486;2023-04-25T11:51:17;16.60;47.50
78876;DHT22;68253;52.506;5.486;2023-04-25T11:53:44;16.10;48.00
78876;DHT22;68253;52.506;5.486;2023-04-25T11:56:11;15.80;48.60
78876;DHT22;68253;52.506;5.486;2023-04-25T11:58:57;15.90;48.40
78876;DHT22;68253;52.506;5.486;2023-04-25T12:03:52;16.50;49.10
78876;DHT22;68253;52.506;5.486;2023-04-25T12:06:18;16.60;48.30
78876;DHT22;68253;52.506;5.486;2023-04-25T12:09:04;16.40;48.60
78876;DHT22;68253;52.506;5.486;2023-04-25T12:11:40;15.60;49.60
78876;DHT22;68253;52.506;5.486;2023-04-25T12:14:06;15.20;49.80
78876;DHT22;68253;52.506;5.486;2023-04-25T12:16:43;14.60;50.60
78876;DHT22;68253;52.506;5.486;2023-04-25T12:19:09;14.10;51.20
78876;DHT22;68253;52.506;5.486;2023-04-25T12:21:39;13.90;52.00
78876;DHT22;68253;52.506;5.486;2023-04-25T12:24:13;13.70;52.00
78876;DHT22;68253;52.506;5.486;2023-04-25T12:26:53;13.50;51.50
78876;DHT22;68253;52.506;5.486;2023-04-25T12:29:24;13.30;51.60
78876;DHT22;68253;52.506;5.486;2023-04-25T12:31:52;13.30;51.90
78876;DHT22;68253;52.506;5.486;2023-04-25T12:34:19;13.10;52.00
78876;DHT22;68253;52.506;5.486;2023-04-25T12:36:45;13.20;52.30
78876;DHT22;68253;52.506;5.486;2023-04-25T12:39:16;13.30;52.60
78876;DHT22;68253;52.506;5.486;2023-04-25T12:41:43;13.60;53.10
78876;DHT22;68253;52.506;5.486;2023-04-25T12:44:10;14.10;53.40
78876;DHT22;68253;52.506;5.486;2023-04-25T12:46:37;14.50;52.50
78876;DHT22;68253;52.506;5.486;2023-04-25T12:49:04;14.70;52.20
78876;DHT22;68253;52.506;5.486;2023-04-25T12:51:30;14.90;52.00
78876;DHT22;68253;52.506;5.486;2023-04-25T12:53:59;15.30;52.40
78876;DHT22;68253;52.506;5.486;2023-04-25T12:56:26;15.70;51.70
78876;DHT22;68253;52.506;5.486;2023-04-25T12:58:53;16.00;51.60
78876;DHT22;68253;52.506;5.486;2023-04-25T13:01:20;16.10;51.40
78876;DHT22;68253;52.506;5.486;2023-04-25T13:03:47;16.00;51.20
78876;DHT22;68253;52.506;5.486;2023-04-25T13:06:14;16.00;51.50
78876;DHT22;68253;52.506;5.486;2023-04-25T13:08:41;15.70;51.00
78876;DHT22;68253;52.506;5.486;2023-04-25T13:11:08;15.40;51.20
78876;DHT22;68253;52.506;5.486;2023-04-25T13:13:34;15.00;51.50
78876;DHT22;68253;52.506;5.486;2023-04-25T13:16:01;14.90;52.00
78876;DHT22;68253;52.506;5.486;2023-04-25T13:18:28;15.30;52.20
78876;DHT22;68253;52.506;5.486;2023-04-25T13:20:55;15.80;52.10
78876;DHT22;68253;52.506;5.486;2023-04-25T13:23:22;16.20;51.20
78876;DHT22;68253;52.506;5.486;2023-04-25T13:25:48;16.50;51.10
78876;DHT22;68253;52.506;5.486;2023-04-25T13:28:14;16.90;50.90
78876;DHT22;68253;52.506;5.486;2023-04-25T13:30:42;17.10;50.50
78876;DHT22;68253;52.506;5.486;2023-04-25T13:33:08;17.00;49.80
78876;DHT22;68253;52.506;5.486;2023-04-25T13:35:36;17.20;49.50
78876;DHT22;68253;52.506;5.486;2023-04-25T13:38:02;17.20;48.90
78876;DHT22;68253;52.506;5.486;2023-04-25T13:40:29;16.90;49.20
78876;DHT22;68253;52.506;5.486;2023-04-25T13:42:55;16.40;49.30
78876;DHT22;68253;52.506;5.486;2023-04-25T13:45:22;16.00;49.50
78876;DHT22;68253;52.506;5.486;2023-04-25T13:47:48;15.50;49.80
78876;DHT22;68253;52.506;5.486;2023-04-25T13:50:14;15.00;49.50
78876;DHT22;68253;52.506;5.486;2023-04-25T13:52:41;14.50;49.60
78876;DHT22;68253;52.506;5.486;2023-04-25T13:55:08;14.10;49.90
78876;DHT22;68253;52.506;5.486;2023-04-25T13:57:35;13.80;50.10
78876;DHT22;68253;52.506;5.486;2023-04-25T14:00:04;13.50;50.60
78876;DHT22;68253;52.506;5.486;2023-04-25T14:02:38;13.30;51.00
78876;DHT22;68253;52.506;5.486;2023-04-25T14:05:05;13.50;51.70
78876;DHT22;68253;52.506;5.486;2023-04-25T14:07:31;13.90;51.90
78876;DHT22;68253;52.506;5.486;2023-04-25T14:09:57;14.10;51.40
78876;DHT22;68253;52.506;5.486;2023-04-25T14:12:24;14.30;50.00
78876;DHT22;68253;52.506;5.486;2023-04-25T14:14:51;14.40;49.20
78876;DHT22;68253;52.506;5.486;2023-04-25T14:17:19;14.50;49.00
78876;DHT22;68253;52.506;5.486;2023-04-25T14:19:45;14.70;48.50
78876;DHT22;68253;52.506;5.486;2023-04-25T14:22:14;14.90;48.30
78876;DHT22;68253;52.506;5.486;2023-04-25T14:24:41;15.00;48.40
78876;DHT22;68253;52.506;5.486;2023-04-25T14:27:08;15.20;48.20
78876;DHT22;68253;52.506;5.486;2023-04-25T14:29:34;15.20;48.50
78876;DHT22;68253;52.506;5.486;2023-04-25T14:32:01;15.30;48.50
78876;DHT22;68253;52.506;5.486;2023-04-25T14:34:27;15.30;48.50
78876;DHT22;68253;52.506;5.486;2023-04-25T14:36:54;15.40;49.20
78876;DHT22;68253;52.506;5.486;2023-04-25T14:39:20;15.40;50.50
78876;DHT22;68253;52.506;5.486;2023-04-25T14:41:46;15.40;50.80
78876;DHT22;68253;52.506;5.486;2023-04-25T14:44:12;15.40;50.30
78876;DHT22;68253;52.506;5.486;2023-04-25T14:46:38;15.00;50.50
78876;DHT22;68253;52.506;5.486;2023-04-25T14:49:04;14.50;50.90
78876;DHT22;68253;52.506;5.486;2023-04-25T14:51:31;14.20;50.80
78876;DHT22;68253;52.506;5.486;2023-04-25T14:53:57;14.00;50.70
78876;DHT22;68253;52.506;5.486;2023-04-25T14:56:23;13.60;50.70
78876;DHT22;68253;52.506;5.486;2023-04-25T14:58:50;13.30;51.30
78876;DHT22;68253;52.506;5.486;2023-04-25T15:01:16;13.00;51.80
78876;DHT22;68253;52.506;5.486;2023-04-25T15:03:42;12.70;52.30
78876;DHT22;68253;52.506;5.486;2023-04-25T15:06:08;12.50;52.50
78876;DHT22;68253;52.506;5.486;2023-04-25T15:08:35;12.50;52.50
78876;DHT22;68253;52.506;5.486;2023-04-25T15:11:01;12.40;53.00
78876;DHT22;68253;52.506;5.486;2023-04-25T15:13:28;12.30;53.80
78876;DHT22;68253;52.506;5.486;2023-04-25T15:15:55;12.60;54.70
78876;DHT22;68253;52.506;5.486;2023-04-25T15:18:22;13.10;53.90
78876;DHT22;68253;52.506;5.486;2023-04-25T15:20:50;13.60;53.30
78876;DHT22;68253;52.506;5.486;2023-04-25T15:23:17;14.00;51.50
78876;DHT22;68253;52.506;5.486;2023-04-25T15:25:44;13.90;51.50
78876;DHT22;68253;52.506;5.486;2023-04-25T15:28:10;13.60;52.00
78876;DHT22;68253;52.506;5.486;2023-04-25T15:30:37;13.50;52.40
78876;DHT22;68253;52.506;5.486;2023-04-25T15:33:03;13.30;53.00
78876;DHT22;68253;52.506;5.486;2023-04-25T15:35:29;13.10;53.30
78876;DHT22;68253;52.506;5.486;2023-04-25T15:37:55;13.10;53.50
78876;DHT22;68253;52.506;5.486;2023-04-25T15:40:21;13.10;53.70
78876;DHT22;68253;52.506;5.486;2023-04-25T15:42:49;13.20;54.00
78876;DHT22;68253;52.506;5.486;2023-04-25T15:45:20;13.30;53.60
78876;DHT22;68253;52.506;5.486;2023-04-25T15:47:47;13.50;53.60
78876;DHT22;68253;52.506;5.486;2023-04-25T15:50:13;13.50;52.90
78876;DHT22;68253;52.506;5.486;2023-04-25T15:52:40;13.50;52.00
78876;DHT22;68253;52.506;5.486;2023-04-25T15:55:07;13.40;51.60
78876;DHT22;68253;52.506;5.486;2023-04-25T15:57:35;13.20;51.30
78876;DHT22;68253;52.506;5.486;2023-04-25T16:00:03;13.10;51.50
78876;DHT22;68253;52.506;5.486;2023-04-25T16:02:39;13.00;51.60